Flight Track Log - Related Links

Times and Time Zones

All times are in EDT time to prevent confusion due to time zone crossing. See the ENY3619 flight status page for this flight to view local times or setup timezone preferences in your user account.

Time Position Orientation Groundspeed Altitude Reporting Facility
EDT Latitude Longitude Course Direction KTS MPH feet Rate Location/Type
Thu 03:27:14 PM 41.9667 -87.9667 266° West 173 199 2,600  Level Chicago TRACON
Thu 03:28:24 PM 41.9608 -88.0717 266° West 237 273 5,200 2,500 Climbing Chicago Center
Thu 03:29:26 PM 41.9547 -88.1714 265° West 264 304 8,100 2,903 Climbing Chicago Center
Thu 03:30:28 PM 41.9475 -88.2797 265° West 269 310 11,200 2,419 Climbing Chicago Center
Thu 03:31:30 PM 41.9194 -88.3819 250° West 294 338 13,100 1,694 Climbing Chicago Center
Thu 03:32:32 PM 41.8825 -88.5114 249° West 348 400 14,700 1,581 Climbing Chicago Center
Thu 03:34:36 PM 41.8114 -88.7581 234° Southwest 379 436 18,000 1,829 Climbing Chicago Center
Thu 03:35:39 PM 41.7819 -88.9197 256° West 375 432 20,400 1,701 Climbing Chicago Center
Thu 03:37:43 PM 41.7456 -89.2006 260° West 387 445 23,300 1,282 Climbing Chicago Center
Thu 03:39:47 PM 41.7058 -89.4928 260° West 401 461 25,700 1,194 Climbing Chicago Center
Thu 03:40:49 PM 41.6831 -89.6603 260° West 406 467 27,000 1,113 Climbing Chicago Center
Thu 03:41:51 PM 41.6467 -89.8089 252° West 420 483 28,000 903 Climbing Chicago Center
Thu 03:43:55 PM 41.5550 -90.0972 247° West 425 489 29,800 839 Climbing Chicago Center
Thu 03:44:57 PM 41.4978 -90.2728 247° West 429 494 30,600 726 Climbing Chicago Center
Thu 03:45:59 PM 41.4503 -90.4197 247° West 432 497 31,300 672 Climbing Chicago Center
Thu 03:47:02 PM 41.4022 -90.5661 246° West 433 498 32,000 578 Climbing Chicago Center
Thu 03:49:06 PM 41.3047 -90.8611 246° West 436 502 33,100 548 Climbing Chicago Center
Thu 03:50:08 PM 41.2461 -91.0367 246° West 435 501 33,700 629 Climbing Chicago Center
Thu 03:51:10 PM 41.1969 -91.1800 246° West 433 498 34,400 677 Climbing Chicago Center
Thu 03:52:12 PM 41.1483 -91.3222 246° West 429 494 35,100 581 Climbing Chicago Center
Thu 03:53:14 PM 41.1008 -91.4644 246° West 427 491 35,600 484 Climbing Chicago Center
Thu 03:54:16 PM 41.0519 -91.6078 246° West 426 490 36,100 532 Climbing Chicago Center
Thu 03:55:18 PM 40.9978 -91.7644 245° Southwest 427 491 36,700 532 Climbing Chicago Center
Thu 03:56:20 PM 40.9492 -91.9064 246° West 427 491 37,200 366 Climbing Chicago Center
Thu 03:58:51 PM 40.8222 -92.2689 245° Southwest 425 489 38,000 258 Climbing Kansas City Center
Thu 03:59:26 PM 40.7942 -92.3528 246° West 424 488 38,000  Level Chicago Center
Thu 04:00:29 PM 40.7447 -92.4900 245° Southwest 424 488 38,000  Level Chicago Center
Thu 04:01:31 PM 40.6956 -92.6281 245° Southwest 423 487 38,000  Level Chicago Center
Thu 04:02:33 PM 40.6375 -92.7933 245° Southwest 423 487 38,000  Level Chicago Center
Thu 04:03:35 PM 40.5883 -92.9311 245° Southwest 423 487 38,000  Level Chicago Center
Thu 04:04:37 PM 40.5383 -93.0683 244° Southwest 423 487 38,000  Level Chicago Center
Thu 04:06:06 PM 40.4683 -93.2614 245° Southwest 425 489 38,000  Level Kansas City Center
Thu 04:07:06 PM 40.4125 -93.4317 247° West 428 493 38,000  Level Kansas City Center
Thu 04:08:08 PM 40.3719 -93.5744 250° West 426 490 38,000  Level Kansas City Center
Thu 04:09:48 PM 40.3031 -93.8078 249° West 428 493 38,000  Level Chicago Center
Thu 04:10:50 PM 40.2592 -93.9528 248° West 430 495 38,000  Level Chicago Center
Thu 04:11:52 PM 40.2056 -94.1267 248° West 431 496 38,000  Level Chicago Center
Thu 04:13:20 PM 40.1428 -94.3344 248° West 432 497 38,000  Level Kansas City Center
Thu 04:14:21 PM 40.0978 -94.4817 248° West 437 503 38,000  Level Kansas City Center
Thu 04:15:24 PM 40.0528 -94.6286 248° West 437 503 38,000  Level Kansas City Center
Thu 04:16:25 PM 40.0075 -94.7747 248° West 437 503 38,000  Level Kansas City Center
Thu 04:17:29 PM 39.9622 -94.9222 248° West 438 504 38,000  Level Kansas City Center
Thu 04:18:30 PM 39.8992 -95.0936 244° Southwest 440 506 38,000  Level Kansas City Center
Thu 04:19:31 PM 39.8461 -95.2369 244° Southwest 440 506 38,000  Level Kansas City Center
Thu 04:20:36 PM 39.7917 -95.3833 244° Southwest 441 507 38,000  Level Kansas City Center
Thu 04:21:36 PM 39.7400 -95.5247 245° Southwest 443 510 38,000  Level Kansas City Center
Thu 04:22:37 PM 39.6858 -95.6678 244° Southwest 444 511 38,000  Level Kansas City Center
Thu 04:24:41 PM 39.5656 -95.9836 243° Southwest 446 513 38,000  Level Kansas City Center
Thu 04:26:46 PM 39.4531 -96.2772 241° Southwest 447 514 38,000  Level Kansas City Center
Thu 04:27:48 PM 39.3972 -96.4222 244° Southwest 447 514 38,000  Level Kansas City Center
Thu 04:28:52 PM 39.3336 -96.5856 243° Southwest 447 514 38,000  Level Kansas City Center
Thu 04:29:52 PM 39.2781 -96.7300 244° Southwest 447 514 38,000  Level Kansas City Center
Thu 04:30:56 PM 39.2228 -96.8722 243° Southwest 447 514 38,000  Level Kansas City Center
Thu 04:31:56 PM 39.1653 -97.0144 242° Southwest 447 514 38,000  Level Kansas City Center
Thu 04:33:00 PM 39.1092 -97.1572 243° Southwest 447 514 38,000  Level Kansas City Center
Thu 04:34:02 PM 39.0522 -97.3039 243° Southwest 454 522 38,000  Level Kansas City Center
Thu 04:35:02 PM 38.9833 -97.4753 243° Southwest 451 519 38,000  Level Kansas City Center
Thu 04:36:06 PM 38.9283 -97.6172 244° Southwest 445 512 38,000  Level Kansas City Center
Thu 04:37:07 PM 38.8808 -97.7650 248° West 446 513 38,000  Level Kansas City Center
Thu 04:38:08 PM 38.8333 -97.9231 249° West 456 525 38,000  Level Kansas City Center
Thu 04:39:11 PM 38.7869 -98.0708 248° West 456 525 38,000  Level Kansas City Center
Thu 04:40:13 PM 38.7408 -98.2194 248° West 454 522 38,000  Level Kansas City Center
Thu 04:41:14 PM 38.6847 -98.3975 248° West 454 522 38,000  Level Kansas City Center
Thu 04:43:21 PM 38.5903 -98.6953 248° West 454 522 38,000  Level Kansas City Center
Thu 04:44:21 PM 38.5433 -98.8433 248° West 454 522 38,000  Level Kansas City Center
Thu 04:45:25 PM 38.4983 -98.9892 249° West 450 518 38,000  Level Kansas City Center
Thu 04:46:25 PM 38.4511 -99.1372 248° West 450 518 38,000  Level Kansas City Center
Thu 04:49:31 PM 38.2936 -99.6172 249° West 451 519 38,000  Level Kansas City Center
Thu 04:52:00 PM 38.1661 -99.9906 242° Southwest 452 520 38,000  Level Albuquerque Center
Thu 04:52:39 PM 38.1453 -100.0647 250° West 452 520 38,000  Level Kansas City Center
Thu 04:54:44 PM 38.0422 -100.3681 247° West 452 520 38,000  Level Kansas City Center
Thu 04:55:00 PM 38.0464 -100.2992 249° West  Level FlightAware Approximate
Thu 04:55:44 PM 37.9864 -100.5331 247° West 453 521 38,000  Level Kansas City Center
Thu 04:56:48 PM 37.9389 -100.6719 247° West 453 521 38,000  Level Kansas City Center
Thu 04:57:48 PM 37.8722 -100.8261 241° Southwest 452 520 38,000  Level Kansas City Center
Thu 04:59:53 PM 37.7389 -101.0978 238° Southwest 456 525 38,000  Level Kansas City Center
Thu 05:00:53 PM 37.6700 -101.2622 242° Southwest 456 525 38,000  Level Kansas City Center
Thu 05:03:20 PM 37.5417 -101.6025 245° Southwest 451 519 38,000  Level Albuquerque Center
Thu 05:04:22 PM 37.4897 -101.7403 245° Southwest 452 520 38,000  Level Albuquerque Center
Thu 05:05:03 PM 37.4556 -101.8314 245° Southwest 453 521 38,000  Level Kansas City Center
Thu 05:06:04 PM 37.3944 -101.9925 245° Southwest 454 522 38,000  Level Kansas City Center
Thu 05:08:08 PM 37.2792 -102.2903 244° Southwest 456 525 38,000  Level Kansas City Center
Thu 05:09:31 PM 37.1997 -102.4972 244° Southwest 455 524 38,000  Level Albuquerque Center
Thu 05:10:33 PM 37.1442 -102.6408 244° Southwest 455 524 38,000  Level Albuquerque Center
Thu 05:11:35 PM 37.0875 -102.7828 243° Southwest 456 525 38,000  Level Albuquerque Center
Thu 05:13:38 PM 36.9589 -103.0567 240° Southwest 456 525 38,000  Level Albuquerque Center
Thu 05:14:40 PM 36.8828 -103.1864 234° Southwest 457 526 38,000  Level Albuquerque Center
Thu 05:15:42 PM 36.8042 -103.3125 232° Southwest 458 527 38,000 -290 Level Albuquerque Center
Thu 05:16:44 PM 36.6956 -103.4506 226° Southwest 461 531 37,400 -726 Descending Albuquerque Center
Thu 05:17:46 PM 36.6133 -103.5475 223° Southwest 440 506 36,500 -683 Descending Albuquerque Center
Thu 05:18:47 PM 36.5244 -103.6506 223° Southwest 434 499 36,000 -162 Descending Albuquerque Center
Thu 05:20:51 PM 36.3436 -103.8794 227° Southwest 458 527 36,000  Level Albuquerque Center
Thu 05:21:53 PM 36.2544 -103.9978 227° Southwest 462 532 36,000  Level Albuquerque Center
Thu 05:22:54 PM 36.1583 -104.1325 229° Southwest 451 519 36,000 -146 Level Albuquerque Center
Thu 05:23:56 PM 36.0547 -104.2233 215° Southwest 453 521 35,700 -629 Descending Albuquerque Center
Thu 05:24:58 PM 35.9497 -104.3144 215° Southwest 454 522 34,700 -968 Descending Albuquerque Center
Thu 05:26:00 PM 35.8394 -104.4111 215° Southwest 474 545 33,700 -1,016 Descending Albuquerque Center
Thu 05:27:02 PM 35.7306 -104.5069 216° Southwest 477 549 32,600 -1,024 Descending Albuquerque Center
Thu 05:28:03 PM 35.6236 -104.5994 215° Southwest 476 548 31,600 -1,171 Descending Albuquerque Center
Thu 05:29:05 PM 35.5178 -104.6908 215° Southwest 469 540 30,200 -2,136 Descending Albuquerque Center
Thu 05:33:12 PM 35.1306 -105.0875 251° West 424 488 20,600 -2,286 Descending Albuquerque Center
Thu 05:35:15 PM 35.1161 -105.3819 267° West 431 496 16,100 -1,459 Descending Albuquerque Center
Thu 05:36:17 PM 35.1097 -105.5131 267° West 394 453 16,100 -48 Level Albuquerque Center
Thu 05:37:19 PM 35.1031 -105.6669 267° West 395 455 16,000 -49 Descending Albuquerque Center
Thu 05:38:00 PM 35.0037 -105.6871 251° West  Level FlightAware Approximate
Thu 05:38:20 PM 35.0958 -105.8031 266° West 399 459 16,000  Level Albuquerque Center
Thu 05:39:22 PM 35.0892 -105.9444 267° West 409 471 16,000  Level Albuquerque Center
Thu 05:39:53 PM 35.0853 -106.0206 266° West 416 479 16,000 -290 Level Albuquerque Center
Thu 05:40:24 PM 35.0811 -106.0853 266° West 411 473 15,700 -800 Descending Albuquerque Center
Thu 05:40:53 PM 35.0667 -106.1553 256° West 414 476 15,200 -1,000 Descending Albuquerque Center
Thu 05:41:54 PM 35.0414 -106.2892 257° West 402 463 14,200 -894 Descending Albuquerque Center
Thu 05:42:27 PM 35.0317 -106.3431 258° West 394 453 13,800 -758 Descending Albuquerque Center
Thu 05:43:29 PM 35.0092 -106.4719 258° West 391 450 13,000 -545 Descending Albuquerque Center
Thu 05:43:55 PM 34.9900 -106.5542 254° West 393 452 13,000  Level Albuquerque Center
Thu 05:44:30 PM 34.9606 -106.5903 225° Southwest 389 448 13,000  Level Albuquerque Center
Thu 05:44:56 PM 34.9100 -106.6450 222° Southwest 389 448 13,000 -194 Level Albuquerque Center
Thu 05:45:32 PM 34.8633 -106.6922 220° Southwest 390 449 12,800 -393 Descending Albuquerque Center
Thu 05:45:57 PM 34.8342 -106.7239 222° Southwest 341 392 12,600 -1,171 Descending Albuquerque Center
Thu 05:47:35 PM 34.8011 -106.8303 27° Northeast 267 307 10,400 -1,388 Descending Albuquerque Center
Thu 05:47:58 PM 34.8294 -106.8311 359° North 231 266 9,800 -1,143 Descending Albuquerque Center
Thu 05:48:59 PM 34.8867 -106.7933 28° Northeast 241 277 8,800 -950 Descending Albuquerque Center
Thu 05:49:39 PM 34.9131 -106.7617 45° Northeast 233 268 8,200 -1,200 Descending Albuquerque Center
Thu 05:49:59 PM 34.9325 -106.7375 46° Northeast 238 274 7,600 -1,185 Descending Albuquerque Center
Thu 05:51:00 PM 34.9733 -106.6908 43° Northeast 188 216 6,600 -885 Descending Albuquerque Center
Thu 05:52:01 PM 35.0050 -106.6514 46° Northeast 135 155 5,800 -787 Descending Albuquerque Center

Login

Don't have an account? Register now (free) for customized features, flight alerts, and more!